• Join FlightAware (Why Join?)
  • Login
  • US Flag 
12:45AM EDT


 

Airport Tracker/Info


-or-


 

Live Flight TrackerFlight Track Log ✈ N68JV ✈ 02-May-2013 ✈ KTEB - KMKE

Flight Track Log - Related Links

Times and Time Zones

All times are in EDT time to prevent confusion due to time zone crossing. See the N68JV flight status page for this flight to view local times or setup timezone preferences in your user account.

Time Position Orientation Groundspeed Altitude Reporting Facility
EDT Latitude Longitude Course Direction KTS MPH feet Rate Location/Type
03:39PM 40.8167 -74.1167 270° West 177 204 1,600  Level New York TRACON
03:40PM 40.8167 -74.2167 270° West 222 255 2,400 1,500 Climbing New York TRACON
03:41PM 40.8167 -74.3000 270° West 264 304 4,800 2,760 Climbing New York TRACON
03:42PM 40.8833 -74.3667 323° Northwest 291 335 8,000 3,000 Climbing New York TRACON
03:43PM 40.9250 -74.3853 341° North 283 326 9,900 3,180 Climbing New York Center
03:44PM 40.9992 -74.4139 344° North 283 326 13,500 2,940 Climbing New York Center
03:45PM 41.1333 -74.7166 270° West  Level FlightAware Approximate
03:45PM 41.0731 -74.4508 339° North 283 326 15,900  Level New York Center
03:46PM 41.1136 -74.5522 298° West 276 318 16,000 540 Climbing New York Center
03:47PM 41.1575 -74.6733 296° West 346 398 17,000 1,140 Climbing New York Center
03:48PM 41.2056 -74.7917 298° West 375 432 18,300 1,380 Climbing New York Center
03:49PM 41.2458 -74.8908 298° West 380 437 19,800 1,800 Climbing New York Center
03:50PM 41.3014 -75.0322 298° West 380 437 22,000 1,920 Climbing New York Center
03:51PM 41.3508 -75.1597 297° West 380 437 23,800 1,560 Climbing New York Center
03:52PM 41.4022 -75.2903 298° West 386 444 25,200 1,320 Climbing New York Center
03:53PM 41.4533 -75.4239 297° West 397 457 26,400 1,260 Climbing New York Center
03:54PM 41.4997 -75.5656 294° West 403 464 27,800 1,320 Climbing New York Center
03:55PM 41.5417 -75.7072 292° West 414 476 29,100 1,380 Climbing New York Center
03:56PM 41.5814 -75.8514 290° West 414 476 30,700 1,620 Climbing New York Center
03:57PM 41.6231 -75.9933 291° West 419 482 32,400 1,620 Climbing New York Center
03:58PM 41.6608 -76.1325 290° West 414 476 34,000 1,620 Climbing New York Center
03:59PM 41.7006 -76.2633 292° West 401 461 35,700 1,320 Climbing New York Center
04:01PM 41.7811 -76.5617 290° West 376 433 38,300 1,080 Climbing Cleveland Center
04:02PM 41.8150 -76.6933 289° West 376 433 39,300 840 Climbing Cleveland Center
04:03PM 41.8528 -76.8278 291° West 376 433 40,000 300 Climbing Cleveland Center
04:04PM 41.8925 -76.9650 291° West 381 438 40,000  Level Cleveland Center
04:05PM 41.9306 -77.1108 289° West 396 456 40,000  Level Cleveland Center
04:06PM 41.9703 -77.2567 290° West 410 472 40,000  Level Cleveland Center
04:07PM 42.0097 -77.4000 290° West 415 478 40,000  Level Cleveland Center
04:08PM 42.0469 -77.5408 290° West 415 478 40,000  Level Cleveland Center
04:09PM 42.0861 -77.6872 290° West 415 478 40,000  Level Cleveland Center
04:10PM 42.1231 -77.8339 289° West 415 478 40,000  Level Cleveland Center
04:11PM 42.1619 -77.9781 290° West 415 478 40,000  Level Cleveland Center
04:12PM 42.2006 -78.1250 290° West 420 483 40,000  Level Cleveland Center
04:13PM 42.2414 -78.2861 289° West 420 483 40,000  Level Cleveland Center
04:14PM 42.2797 -78.4333 289° West 420 483 40,000  Level Cleveland Center
04:15PM 42.3178 -78.5783 290° West 420 483 40,000  Level Cleveland Center
04:16PM 42.3556 -78.7231 289° West 420 483 40,000  Level Cleveland Center
04:17PM 42.3911 -78.8656 289° West 420 483 40,000  Level Cleveland Center
04:18PM 42.4222 -78.9969 288° West 415 478 40,000  Level Cleveland Center
04:19PM 42.4617 -79.1533 289° West 415 478 40,000  Level Cleveland Center
04:20PM 42.4886 -79.3019 284° West 409 471 40,000  Level Cleveland Center
04:21PM 42.5089 -79.4536 280° West 409 471 40,000  Level Cleveland Center
04:22PM 42.5250 -79.6056 278° West 409 471 40,000  Level Cleveland Center
04:23PM 42.5428 -79.7575 279° West 409 471 40,000  Level Cleveland Center
04:24PM 42.5625 -79.9122 280° West 409 471 40,000  Level Cleveland Center
04:25PM 42.5778 -80.0672 278° West 414 476 40,000  Level Cleveland Center
04:26PM 42.5950 -80.2222 279° West 414 476 40,000  Level Cleveland Center
04:27PM 42.6122 -80.3744 279° West 423 487 40,000  Level Cleveland Center
04:28PM 42.6247 -80.5267 276° West 418 481 40,000  Level Cleveland Center
04:29PM 42.6414 -80.6678 279° West 418 481 40,000  Level Cleveland Center
04:30PM 42.6581 -80.8203 279° West 418 481 40,000  Level Cleveland Center
04:31PM 42.6722 -80.9700 277° West 408 470 40,000  Level Cleveland Center
04:32PM 42.6881 -81.1228 278° West 408 470 40,000  Level Cleveland Center
04:33PM 42.7019 -81.2753 277° West 408 470 40,000  Level Cleveland Center
04:34PM 42.7175 -81.4281 278° West 410 472 40,000  Level Cleveland Center
04:35PM 42.7331 -81.5753 278° West 410 472 40,000  Level Cleveland Center
04:36PM 42.7464 -81.7311 277° West 416 479 40,000  Level Cleveland Center
04:37PM 42.7592 -81.8783 277° West 410 472 40,000  Level Cleveland Center
04:38PM 42.7742 -82.0286 278° West 410 472 40,000  Level Cleveland Center
04:39PM 42.7889 -82.1817 278° West 410 472 40,000  Level Cleveland Center
04:41PM 42.7980 -82.3514 274° West  Level FlightAware Approximate
04:44PM 42.8569 -82.9508 277° West 410 472 40,000  Level Cleveland Center
04:45PM 42.8683 -83.1017 273° West 405 466 40,000  Level Cleveland Center
04:46PM 42.8636 -83.1210 273° West  Level Estimated
04:46PM 42.8817 -83.2522 277° West 405 466 40,000  Level Cleveland Center
04:47PM 42.8925 -83.4031 276° West 405 466 40,000  Level Cleveland Center
04:48PM 42.8703 -83.3262 277° West  Level FlightAware Approximate
04:48PM 42.9056 -83.5539 277° West 405 466 40,000  Level Cleveland Center
04:49PM 42.8820 -83.4653 277° West  Level FlightAware Approximate
04:49PM 42.9181 -83.7075 276° West 405 466 40,000  Level Cleveland Center
04:50PM 42.8937 -83.6045 277° West  Level FlightAware Approximate
04:51PM 42.9408 -84.0094 276° West 405 466 39,500  Level Cleveland Center
04:52PM 42.9528 -84.1606 276° West 405 466 38,200 -1,320 Descending Cleveland Center
04:53PM 42.8969 -84.1004 273° West  Level Estimated
04:53PM 42.9625 -84.3169 275° West 405 466 36,900  Level Cleveland Center
04:54PM 42.9706 -84.4481 275° West 405 466 35,800 -1,200 Descending Cleveland Center
04:55PM 42.9800 -84.6047 275° West 410 472 34,500 -840 Descending Cleveland Center
04:57PM 43.0000 -84.8164 277° West 416 479 34,000 -240 Descending Chicago Center
04:58PM 43.0111 -84.9756 276° West 420 483 34,000  Level Chicago Center
04:59PM 43.0219 -85.1325 275° West 418 481 34,000 -480 Level Chicago Center
05:00PM 43.0308 -85.2894 274° West 417 480 33,100 -660 Descending Chicago Center
05:01PM 43.0408 -85.4475 275° West 418 481 32,700 -720 Descending Chicago Center
05:02PM 43.0503 -85.6064 275° West 421 484 31,700 -1,380 Descending Chicago Center
05:03PM 43.0619 -85.7997 275° West 427 491 29,900 -1,680 Descending Chicago Center
05:04PM 43.0719 -85.9553 275° West 434 499 28,300 -1,740 Descending Chicago Center
05:05PM 43.0814 -86.1194 275° West 452 520 26,400 -2,340 Descending Chicago Center
05:06PM 43.0922 -86.3203 274° West 450 518 23,500 -2,520 Descending Chicago Center
05:07PM 43.1014 -86.4842 274° West 437 503 21,300 -2,220 Descending Chicago Center
05:08PM 43.1086 -86.6403 274° West 416 479 19,000 -2,100 Descending Chicago Center
05:09PM 43.1172 -86.7925 274° West 405 466 17,000 -1,920 Descending Chicago Center
05:10PM 43.1233 -86.9336 273° West 377 434 15,100 -1,440 Descending Chicago Center
05:11PM 43.1311 -87.0739 274° West 373 429 14,000 -840 Descending Chicago Center
05:12PM 43.1381 -87.2422 273° West 371 427 13,400 -1,080 Descending Chicago Center
05:13PM 43.1439 -87.3808 273° West 356 410 11,800 -1,500 Descending Chicago Center
05:14PM 43.1456 -87.5081 271° West 338 389 10,300 -900 Descending Chicago Center
05:15PM 43.1297 -87.6142 258° West 298 343 10,000 -540 Descending Chicago Center
05:16PM 43.0975 -87.7033 244° Southwest 267 307 9,200 -1,080 Descending Chicago Center
05:17PM 43.0647 -87.7886 242° Southwest 255 293 7,800 -1,080 Descending Chicago Center
05:18PM 42.9936 -87.8122 194° South 225 259 7,000 -420 Descending Chicago Center
05:19PM 42.9364 -87.8039 174° South 210 242 7,000 -120 Level Chicago Center
05:20PM 42.8822 -87.7917 171° South 199 229 6,800 -720 Descending Chicago Center
05:21PM 42.8375 -87.7797 169° South 170 196 5,500 -1,260 Descending Chicago Center
05:22PM 42.7925 -87.7903 190° South 163 188 4,200 -780 Descending Chicago Center
05:23PM 42.7378 -87.7972 185° South 166 191 4,000 -360 Descending Chicago Center
05:24PM 42.7103 -87.8406 229° Southwest 188 216 3,500 -720 Descending Chicago Center
05:26PM 42.7328 -87.8992 298° West 185 213 2,600 -480 Descending Chicago Center
05:27PM 42.7731 -87.9175 342° North 181 208 2,600  Level Chicago Center
05:28PM 42.8072 -87.9197 357° North 143 165 2,600 -120 Level Chicago Center
05:29PM 42.8506 -87.9103 North 135 155 2,400 -480 Descending Chicago Center
05:30PM 42.8833 -87.9000 13° North 120 138 1,700 -660 Descending KMKE
05:31PM 42.9167 -87.9000 360° North 98 113 1,100 -600 Descending KMKE